sensor_id;sensor_type;location;lat;lon;timestamp;P1;durP1;ratioP1;P2;durP2;ratioP2
16775;SDS011;8505;49.456;8.164;2022-10-22T00:00:01;7.03;;;2.90;;
16775;SDS011;8505;49.456;8.164;2022-10-22T00:02:31;5.80;;;2.72;;
16775;SDS011;8505;49.456;8.164;2022-10-22T00:04:58;9.45;;;3.25;;
16775;SDS011;8505;49.456;8.164;2022-10-22T00:07:26;7.68;;;2.70;;
16775;SDS011;8505;49.456;8.164;2022-10-22T00:09:54;8.23;;;2.70;;
16775;SDS011;8505;49.456;8.164;2022-10-22T00:12:21;8.10;;;2.00;;
16775;SDS011;8505;49.456;8.164;2022-10-22T00:14:50;6.47;;;1.10;;
16775;SDS011;8505;49.456;8.164;2022-10-22T00:17:18;5.05;;;1.05;;
16775;SDS011;8505;49.456;8.164;2022-10-22T00:19:46;3.97;;;0.90;;
16775;SDS011;8505;49.456;8.164;2022-10-22T00:22:13;4.18;;;0.90;;
16775;SDS011;8505;49.456;8.164;2022-10-22T00:24:41;4.65;;;1.00;;
16775;SDS011;8505;49.456;8.164;2022-10-22T00:27:09;3.20;;;0.80;;
16775;SDS011;8505;49.456;8.164;2022-10-22T00:29:38;2.80;;;0.90;;
16775;SDS011;8505;49.456;8.164;2022-10-22T00:32:07;2.00;;;0.70;;
16775;SDS011;8505;49.456;8.164;2022-10-22T00:34:35;2.58;;;0.80;;
16775;SDS011;8505;49.456;8.164;2022-10-22T00:37:03;4.65;;;0.90;;
16775;SDS011;8505;49.456;8.164;2022-10-22T00:39:30;5.07;;;0.82;;
16775;SDS011;8505;49.456;8.164;2022-10-22T00:41:58;3.50;;;1.00;;
16775;SDS011;8505;49.456;8.164;2022-10-22T00:47:33;2.60;;;1.00;;
16775;SDS011;8505;49.456;8.164;2022-10-22T00:50:03;5.10;;;0.90;;
16775;SDS011;8505;49.456;8.164;2022-10-22T00:52:33;3.10;;;0.80;;
16775;SDS011;8505;49.456;8.164;2022-10-22T00:55:02;3.53;;;0.95;;
16775;SDS011;8505;49.456;8.164;2022-10-22T00:57:30;2.25;;;0.75;;
16775;SDS011;8505;49.456;8.164;2022-10-22T00:59:58;4.72;;;0.90;;
16775;SDS011;8505;49.456;8.164;2022-10-22T01:02:25;3.13;;;0.70;;
16775;SDS011;8505;49.456;8.164;2022-10-22T01:04:55;4.88;;;0.98;;
16775;SDS011;8505;49.456;8.164;2022-10-22T01:07:23;4.32;;;1.02;;
16775;SDS011;8505;49.456;8.164;2022-10-22T01:09:56;3.72;;;0.88;;
16775;SDS011;8505;49.456;8.164;2022-10-22T01:12:33;7.50;;;1.10;;
16775;SDS011;8505;49.456;8.164;2022-10-22T01:15:11;4.97;;;1.00;;
16775;SDS011;8505;49.456;8.164;2022-10-22T01:17:47;2.50;;;0.70;;
16775;SDS011;8505;49.456;8.164;2022-10-22T01:20:26;2.92;;;0.85;;
16775;SDS011;8505;49.456;8.164;2022-10-22T01:23:11;4.97;;;1.00;;
16775;SDS011;8505;49.456;8.164;2022-10-22T01:25:49;6.82;;;0.90;;
16775;SDS011;8505;49.456;8.164;2022-10-22T01:28:25;2.47;;;0.60;;
16775;SDS011;8505;49.456;8.164;2022-10-22T01:31:06;2.47;;;0.70;;
16775;SDS011;8505;49.456;8.164;2022-10-22T01:33:38;3.25;;;0.80;;
16775;SDS011;8505;49.456;8.164;2022-10-22T01:36:06;5.63;;;0.90;;
16775;SDS011;8505;49.456;8.164;2022-10-22T01:38:35;2.92;;;0.60;;
16775;SDS011;8505;49.456;8.164;2022-10-22T01:41:05;2.75;;;0.90;;
16775;SDS011;8505;49.456;8.164;2022-10-22T01:43:33;2.95;;;0.90;;
16775;SDS011;8505;49.456;8.164;2022-10-22T01:46:02;3.05;;;0.70;;
16775;SDS011;8505;49.456;8.164;2022-10-22T01:48:33;2.80;;;0.90;;
16775;SDS011;8505;49.456;8.164;2022-10-22T01:51:16;4.75;;;0.70;;
16775;SDS011;8505;49.456;8.164;2022-10-22T01:53:57;5.55;;;1.20;;
16775;SDS011;8505;49.456;8.164;2022-10-22T01:56:30;3.08;;;0.90;;
16775;SDS011;8505;49.456;8.164;2022-10-22T01:59:10;4.30;;;0.93;;
16775;SDS011;8505;49.456;8.164;2022-10-22T02:01:50;4.47;;;0.80;;
16775;SDS011;8505;49.456;8.164;2022-10-22T02:04:24;3.33;;;0.70;;
16775;SDS011;8505;49.456;8.164;2022-10-22T02:06:56;3.22;;;0.80;;
16775;SDS011;8505;49.456;8.164;2022-10-22T02:09:28;2.83;;;0.70;;
16775;SDS011;8505;49.456;8.164;2022-10-22T02:11:59;5.70;;;0.80;;
16775;SDS011;8505;49.456;8.164;2022-10-22T02:14:37;3.88;;;0.88;;
16775;SDS011;8505;49.456;8.164;2022-10-22T02:17:09;3.00;;;0.67;;
16775;SDS011;8505;49.456;8.164;2022-10-22T02:19:43;2.63;;;0.70;;
16775;SDS011;8505;49.456;8.164;2022-10-22T02:22:17;2.70;;;0.60;;
16775;SDS011;8505;49.456;8.164;2022-10-22T02:24:46;2.50;;;0.60;;
16775;SDS011;8505;49.456;8.164;2022-10-22T02:27:17;2.97;;;0.60;;
16775;SDS011;8505;49.456;8.164;2022-10-22T02:29:54;3.17;;;0.60;;
16775;SDS011;8505;49.456;8.164;2022-10-22T02:32:27;1.83;;;0.60;;
16775;SDS011;8505;49.456;8.164;2022-10-22T02:34:59;2.20;;;0.50;;
16775;SDS011;8505;49.456;8.164;2022-10-22T02:37:28;2.60;;;0.40;;
16775;SDS011;8505;49.456;8.164;2022-10-22T02:39:56;3.33;;;0.73;;
16775;SDS011;8505;49.456;8.164;2022-10-22T02:42:23;3.20;;;0.70;;
16775;SDS011;8505;49.456;8.164;2022-10-22T02:44:52;1.63;;;0.60;;
16775;SDS011;8505;49.456;8.164;2022-10-22T02:47:20;3.08;;;0.82;;
16775;SDS011;8505;49.456;8.164;2022-10-22T02:49:49;3.15;;;0.70;;
16775;SDS011;8505;49.456;8.164;2022-10-22T02:52:16;2.35;;;0.70;;
16775;SDS011;8505;49.456;8.164;2022-10-22T02:54:44;3.17;;;0.65;;
16775;SDS011;8505;49.456;8.164;2022-10-22T02:57:12;3.10;;;0.80;;
16775;SDS011;8505;49.456;8.164;2022-10-22T02:59:40;3.20;;;0.75;;
16775;SDS011;8505;49.456;8.164;2022-10-22T03:02:08;2.20;;;0.73;;
16775;SDS011;8505;49.456;8.164;2022-10-22T03:04:35;4.47;;;0.83;;
16775;SDS011;8505;49.456;8.164;2022-10-22T03:07:04;3.95;;;0.90;;
16775;SDS011;8505;49.456;8.164;2022-10-22T03:09:32;2.90;;;0.68;;
16775;SDS011;8505;49.456;8.164;2022-10-22T03:11:59;1.85;;;0.70;;
16775;SDS011;8505;49.456;8.164;2022-10-22T03:14:27;4.22;;;1.00;;
16775;SDS011;8505;49.456;8.164;2022-10-22T03:16:54;5.13;;;0.85;;
16775;SDS011;8505;49.456;8.164;2022-10-22T03:19:22;4.00;;;0.90;;
16775;SDS011;8505;49.456;8.164;2022-10-22T03:21:51;4.05;;;0.80;;
16775;SDS011;8505;49.456;8.164;2022-10-22T03:24:25;1.95;;;0.30;;
16775;SDS011;8505;49.456;8.164;2022-10-22T03:26:56;1.58;;;0.30;;
16775;SDS011;8505;49.456;8.164;2022-10-22T03:29:24;3.97;;;0.57;;
16775;SDS011;8505;49.456;8.164;2022-10-22T03:31:53;2.30;;;0.30;;
16775;SDS011;8505;49.456;8.164;2022-10-22T03:34:21;1.10;;;0.30;;
16775;SDS011;8505;49.456;8.164;2022-10-22T03:36:49;1.10;;;0.30;;
16775;SDS011;8505;49.456;8.164;2022-10-22T03:39:18;3.70;;;0.47;;
16775;SDS011;8505;49.456;8.164;2022-10-22T03:41:47;2.10;;;0.30;;
16775;SDS011;8505;49.456;8.164;2022-10-22T03:44:16;2.58;;;0.30;;
16775;SDS011;8505;49.456;8.164;2022-10-22T03:46:44;1.63;;;0.35;;
16775;SDS011;8505;49.456;8.164;2022-10-22T03:49:12;5.03;;;1.60;;
16775;SDS011;8505;49.456;8.164;2022-10-22T03:51:39;4.23;;;1.50;;
16775;SDS011;8505;49.456;8.164;2022-10-22T03:54:07;4.80;;;1.10;;
16775;SDS011;8505;49.456;8.164;2022-10-22T03:56:35;1.92;;;0.40;;
16775;SDS011;8505;49.456;8.164;2022-10-22T03:59:04;2.20;;;0.50;;
16775;SDS011;8505;49.456;8.164;2022-10-22T04:01:32;2.67;;;0.55;;
16775;SDS011;8505;49.456;8.164;2022-10-22T04:04:00;3.97;;;0.80;;
16775;SDS011;8505;49.456;8.164;2022-10-22T04:06:28;2.93;;;0.50;;
16775;SDS011;8505;49.456;8.164;2022-10-22T04:08:57;1.85;;;0.50;;
16775;SDS011;8505;49.456;8.164;2022-10-22T04:11:26;1.73;;;0.40;;
16775;SDS011;8505;49.456;8.164;2022-10-22T04:13:54;1.98;;;0.30;;
16775;SDS011;8505;49.456;8.164;2022-10-22T04:16:22;1.70;;;0.40;;
16775;SDS011;8505;49.456;8.164;2022-10-22T04:18:56;2.38;;;0.50;;
16775;SDS011;8505;49.456;8.164;2022-10-22T04:21:24;2.33;;;0.52;;
16775;SDS011;8505;49.456;8.164;2022-10-22T04:23:51;5.30;;;0.77;;
16775;SDS011;8505;49.456;8.164;2022-10-22T04:26:19;2.05;;;0.50;;
16775;SDS011;8505;49.456;8.164;2022-10-22T04:28:48;2.58;;;0.93;;
16775;SDS011;8505;49.456;8.164;2022-10-22T04:31:17;3.55;;;0.90;;
16775;SDS011;8505;49.456;8.164;2022-10-22T04:33:50;2.50;;;0.90;;
16775;SDS011;8505;49.456;8.164;2022-10-22T04:36:19;4.20;;;0.70;;
16775;SDS011;8505;49.456;8.164;2022-10-22T04:38:50;1.75;;;0.60;;
16775;SDS011;8505;49.456;8.164;2022-10-22T04:41:20;1.83;;;0.60;;
16775;SDS011;8505;49.456;8.164;2022-10-22T04:43:48;3.00;;;0.70;;
16775;SDS011;8505;49.456;8.164;2022-10-22T04:46:16;2.05;;;0.55;;
16775;SDS011;8505;49.456;8.164;2022-10-22T04:48:44;4.00;;;0.80;;
16775;SDS011;8505;49.456;8.164;2022-10-22T04:51:15;7.80;;;0.90;;
16775;SDS011;8505;49.456;8.164;2022-10-22T04:53:44;1.88;;;0.68;;
16775;SDS011;8505;49.456;8.164;2022-10-22T04:56:12;4.00;;;0.95;;
16775;SDS011;8505;49.456;8.164;2022-10-22T04:58:42;2.38;;;0.70;;
16775;SDS011;8505;49.456;8.164;2022-10-22T05:01:10;2.67;;;0.73;;
16775;SDS011;8505;49.456;8.164;2022-10-22T05:03:39;4.43;;;0.87;;
16775;SDS011;8505;49.456;8.164;2022-10-22T05:06:07;3.03;;;0.85;;
16775;SDS011;8505;49.456;8.164;2022-10-22T05:08:36;3.78;;;0.90;;
16775;SDS011;8505;49.456;8.164;2022-10-22T05:11:11;3.67;;;0.60;;
16775;SDS011;8505;49.456;8.164;2022-10-22T05:13:39;1.20;;;0.70;;
16775;SDS011;8505;49.456;8.164;2022-10-22T05:16:07;3.15;;;0.50;;
16775;SDS011;8505;49.456;8.164;2022-10-22T05:18:35;1.48;;;0.50;;
16775;SDS011;8505;49.456;8.164;2022-10-22T05:21:06;2.65;;;0.52;;
16775;SDS011;8505;49.456;8.164;2022-10-22T05:23:37;4.80;;;0.60;;
16775;SDS011;8505;49.456;8.164;2022-10-22T05:26:05;2.47;;;0.60;;
16775;SDS011;8505;49.456;8.164;2022-10-22T05:28:34;1.25;;;0.60;;
16775;SDS011;8505;49.456;8.164;2022-10-22T05:31:03;2.97;;;0.80;;
16775;SDS011;8505;49.456;8.164;2022-10-22T05:33:31;3.20;;;0.70;;
16775;SDS011;8505;49.456;8.164;2022-10-22T05:36:00;3.78;;;0.88;;
16775;SDS011;8505;49.456;8.164;2022-10-22T05:38:30;1.88;;;0.70;;
16775;SDS011;8505;49.456;8.164;2022-10-22T05:41:00;1.80;;;1.00;;
16775;SDS011;8505;49.456;8.164;2022-10-22T05:43:29;4.20;;;0.93;;
16775;SDS011;8505;49.456;8.164;2022-10-22T05:46:00;1.63;;;0.90;;
16775;SDS011;8505;49.456;8.164;2022-10-22T05:48:29;3.15;;;1.10;;
16775;SDS011;8505;49.456;8.164;2022-10-22T05:50:59;2.65;;;1.00;;
16775;SDS011;8505;49.456;8.164;2022-10-22T05:53:29;4.53;;;1.03;;
16775;SDS011;8505;49.456;8.164;2022-10-22T05:56:02;4.07;;;1.13;;
16775;SDS011;8505;49.456;8.164;2022-10-22T05:58:31;1.73;;;0.85;;
16775;SDS011;8505;49.456;8.164;2022-10-22T06:01:02;2.97;;;0.98;;
16775;SDS011;8505;49.456;8.164;2022-10-22T06:03:30;2.28;;;0.90;;
16775;SDS011;8505;49.456;8.164;2022-10-22T06:05:58;3.42;;;0.90;;
16775;SDS011;8505;49.456;8.164;2022-10-22T06:08:28;2.35;;;0.80;;
16775;SDS011;8505;49.456;8.164;2022-10-22T06:10:56;2.88;;;0.88;;
16775;SDS011;8505;49.456;8.164;2022-10-22T06:13:25;3.03;;;0.97;;
16775;SDS011;8505;49.456;8.164;2022-10-22T06:15:53;1.50;;;0.80;;
16775;SDS011;8505;49.456;8.164;2022-10-22T06:18:20;2.47;;;1.00;;
16775;SDS011;8505;49.456;8.164;2022-10-22T06:20:48;2.10;;;0.90;;
16775;SDS011;8505;49.456;8.164;2022-10-22T06:23:16;3.38;;;1.10;;
16775;SDS011;8505;49.456;8.164;2022-10-22T06:25:43;3.50;;;1.80;;
16775;SDS011;8505;49.456;8.164;2022-10-22T06:28:22;3.45;;;1.00;;
16775;SDS011;8505;49.456;8.164;2022-10-22T06:30:57;2.72;;;0.85;;
16775;SDS011;8505;49.456;8.164;2022-10-22T06:33:25;3.40;;;1.30;;
16775;SDS011;8505;49.456;8.164;2022-10-22T06:35:53;5.00;;;1.00;;
16775;SDS011;8505;49.456;8.164;2022-10-22T06:38:21;4.30;;;1.08;;
16775;SDS011;8505;49.456;8.164;2022-10-22T06:40:49;6.28;;;0.93;;
16775;SDS011;8505;49.456;8.164;2022-10-22T06:43:16;5.03;;;0.80;;
16775;SDS011;8505;49.456;8.164;2022-10-22T06:45:44;3.75;;;0.90;;
16775;SDS011;8505;49.456;8.164;2022-10-22T06:48:13;3.00;;;0.88;;
16775;SDS011;8505;49.456;8.164;2022-10-22T06:50:40;2.85;;;0.88;;
16775;SDS011;8505;49.456;8.164;2022-10-22T06:53:08;2.65;;;0.90;;
16775;SDS011;8505;49.456;8.164;2022-10-22T06:55:36;5.10;;;1.13;;
16775;SDS011;8505;49.456;8.164;2022-10-22T06:58:03;4.72;;;0.90;;
16775;SDS011;8505;49.456;8.164;2022-10-22T07:00:32;3.25;;;0.80;;
16775;SDS011;8505;49.456;8.164;2022-10-22T07:03:00;3.28;;;1.35;;
16775;SDS011;8505;49.456;8.164;2022-10-22T07:05:28;4.18;;;1.55;;
16775;SDS011;8505;49.456;8.164;2022-10-22T07:07:56;4.00;;;1.20;;
16775;SDS011;8505;49.456;8.164;2022-10-22T07:10:24;4.70;;;1.40;;
16775;SDS011;8505;49.456;8.164;2022-10-22T07:12:56;4.57;;;1.40;;
16775;SDS011;8505;49.456;8.164;2022-10-22T07:15:24;6.28;;;1.33;;
16775;SDS011;8505;49.456;8.164;2022-10-22T07:17:51;3.90;;;1.45;;
16775;SDS011;8505;49.456;8.164;2022-10-22T07:20:19;3.70;;;1.10;;
16775;SDS011;8505;49.456;8.164;2022-10-22T07:22:48;4.53;;;1.13;;
16775;SDS011;8505;49.456;8.164;2022-10-22T07:25:15;4.95;;;1.00;;
16775;SDS011;8505;49.456;8.164;2022-10-22T07:27:43;4.25;;;0.90;;
16775;SDS011;8505;49.456;8.164;2022-10-22T07:30:11;4.67;;;1.30;;
16775;SDS011;8505;49.456;8.164;2022-10-22T07:32:39;3.70;;;1.27;;
16775;SDS011;8505;49.456;8.164;2022-10-22T07:35:07;4.55;;;1.70;;
16775;SDS011;8505;49.456;8.164;2022-10-22T07:37:35;4.57;;;1.30;;
16775;SDS011;8505;49.456;8.164;2022-10-22T07:40:05;4.10;;;1.30;;
16775;SDS011;8505;49.456;8.164;2022-10-22T07:42:33;3.38;;;1.38;;
16775;SDS011;8505;49.456;8.164;2022-10-22T07:45:01;5.38;;;1.20;;
16775;SDS011;8505;49.456;8.164;2022-10-22T07:47:29;2.97;;;1.13;;
16775;SDS011;8505;49.456;8.164;2022-10-22T07:49:56;3.00;;;1.10;;
16775;SDS011;8505;49.456;8.164;2022-10-22T07:52:24;3.03;;;1.10;;
16775;SDS011;8505;49.456;8.164;2022-10-22T07:54:51;3.13;;;1.60;;
16775;SDS011;8505;49.456;8.164;2022-10-22T07:57:20;4.80;;;1.83;;
16775;SDS011;8505;49.456;8.164;2022-10-22T07:59:49;4.80;;;1.83;;
16775;SDS011;8505;49.456;8.164;2022-10-22T08:02:17;5.57;;;1.70;;
16775;SDS011;8505;49.456;8.164;2022-10-22T08:04:44;3.53;;;1.98;;
16775;SDS011;8505;49.456;8.164;2022-10-22T08:07:12;12.60;;;1.77;;
16775;SDS011;8505;49.456;8.164;2022-10-22T08:09:40;7.93;;;1.15;;
16775;SDS011;8505;49.456;8.164;2022-10-22T08:12:07;7.13;;;1.10;;
16775;SDS011;8505;49.456;8.164;2022-10-22T08:14:36;5.13;;;0.85;;
16775;SDS011;8505;49.456;8.164;2022-10-22T08:17:04;5.28;;;1.10;;
16775;SDS011;8505;49.456;8.164;2022-10-22T08:19:31;3.65;;;1.08;;
16775;SDS011;8505;49.456;8.164;2022-10-22T08:22:00;4.95;;;1.17;;
16775;SDS011;8505;49.456;8.164;2022-10-22T08:24:28;2.00;;;1.00;;
16775;SDS011;8505;49.456;8.164;2022-10-22T08:26:56;2.70;;;1.00;;
16775;SDS011;8505;49.456;8.164;2022-10-22T08:29:27;4.15;;;1.10;;
16775;SDS011;8505;49.456;8.164;2022-10-22T08:31:56;2.95;;;0.93;;
16775;SDS011;8505;49.456;8.164;2022-10-22T08:34:24;4.57;;;1.10;;
16775;SDS011;8505;49.456;8.164;2022-10-22T08:36:51;3.50;;;1.30;;
16775;SDS011;8505;49.456;8.164;2022-10-22T08:39:19;3.90;;;0.90;;
16775;SDS011;8505;49.456;8.164;2022-10-22T08:41:48;4.18;;;1.80;;
16775;SDS011;8505;49.456;8.164;2022-10-22T08:44:32;5.60;;;1.70;;
16775;SDS011;8505;49.456;8.164;2022-10-22T08:47:20;5.30;;;1.50;;
16775;SDS011;8505;49.456;8.164;2022-10-22T08:49:59;4.67;;;1.20;;
16775;SDS011;8505;49.456;8.164;2022-10-22T08:52:28;4.32;;;1.20;;
16775;SDS011;8505;49.456;8.164;2022-10-22T08:54:59;4.72;;;1.20;;
16775;SDS011;8505;49.456;8.164;2022-10-22T08:57:35;2.63;;;1.00;;
16775;SDS011;8505;49.456;8.164;2022-10-22T09:00:13;3.80;;;0.85;;
16775;SDS011;8505;49.456;8.164;2022-10-22T09:02:48;2.78;;;0.68;;
16775;SDS011;8505;49.456;8.164;2022-10-22T09:05:28;2.92;;;0.60;;
16775;SDS011;8505;49.456;8.164;2022-10-22T09:08:08;3.13;;;0.60;;
16775;SDS011;8505;49.456;8.164;2022-10-22T09:10:38;8.55;;;0.80;;
16775;SDS011;8505;49.456;8.164;2022-10-22T09:13:10;3.78;;;0.60;;
16775;SDS011;8505;49.456;8.164;2022-10-22T09:15:42;1.58;;;0.60;;
16775;SDS011;8505;49.456;8.164;2022-10-22T09:18:21;3.10;;;0.82;;
16775;SDS011;8505;49.456;8.164;2022-10-22T09:20:57;4.20;;;1.23;;
16775;SDS011;8505;49.456;8.164;2022-10-22T09:23:31;3.55;;;1.10;;
16775;SDS011;8505;49.456;8.164;2022-10-22T09:26:05;1.75;;;0.70;;
16775;SDS011;8505;49.456;8.164;2022-10-22T09:28:39;3.78;;;0.70;;
16775;SDS011;8505;49.456;8.164;2022-10-22T09:31:09;4.32;;;0.90;;
16775;SDS011;8505;49.456;8.164;2022-10-22T09:33:39;4.10;;;1.00;;
16775;SDS011;8505;49.456;8.164;2022-10-22T09:36:08;2.00;;;0.70;;
16775;SDS011;8505;49.456;8.164;2022-10-22T09:38:41;2.90;;;0.85;;
16775;SDS011;8505;49.456;8.164;2022-10-22T09:41:12;5.05;;;0.82;;
16775;SDS011;8505;49.456;8.164;2022-10-22T09:43:41;3.95;;;1.10;;
16775;SDS011;8505;49.456;8.164;2022-10-22T09:46:13;3.53;;;0.98;;
16775;SDS011;8505;49.456;8.164;2022-10-22T09:48:46;3.78;;;1.10;;
16775;SDS011;8505;49.456;8.164;2022-10-22T09:51:17;2.43;;;0.90;;
16775;SDS011;8505;49.456;8.164;2022-10-22T09:53:46;4.07;;;0.80;;
16775;SDS011;8505;49.456;8.164;2022-10-22T09:56:24;3.08;;;0.82;;
16775;SDS011;8505;49.456;8.164;2022-10-22T09:58:54;4.50;;;0.80;;
16775;SDS011;8505;49.456;8.164;2022-10-22T10:01:23;3.53;;;0.65;;
16775;SDS011;8505;49.456;8.164;2022-10-22T10:03:54;3.43;;;0.70;;
16775;SDS011;8505;49.456;8.164;2022-10-22T10:06:35;3.40;;;0.70;;
16775;SDS011;8505;49.456;8.164;2022-10-22T10:09:05;4.03;;;0.90;;
16775;SDS011;8505;49.456;8.164;2022-10-22T10:11:42;4.95;;;0.90;;
16775;SDS011;8505;49.456;8.164;2022-10-22T10:14:15;3.78;;;0.70;;
16775;SDS011;8505;49.456;8.164;2022-10-22T10:16:51;5.05;;;1.58;;
16775;SDS011;8505;49.456;8.164;2022-10-22T10:19:29;5.88;;;1.23;;
16775;SDS011;8505;49.456;8.164;2022-10-22T10:22:09;4.25;;;1.10;;
16775;SDS011;8505;49.456;8.164;2022-10-22T10:24:49;5.70;;;0.93;;
16775;SDS011;8505;49.456;8.164;2022-10-22T10:27:32;4.18;;;1.10;;
16775;SDS011;8505;49.456;8.164;2022-10-22T10:30:04;6.50;;;1.47;;
16775;SDS011;8505;49.456;8.164;2022-10-22T10:32:43;4.90;;;1.00;;
16775;SDS011;8505;49.456;8.164;2022-10-22T10:35:23;7.47;;;1.05;;
16775;SDS011;8505;49.456;8.164;2022-10-22T10:37:58;4.50;;;1.02;;
16775;SDS011;8505;49.456;8.164;2022-10-22T10:40:39;4.43;;;1.20;;
16775;SDS011;8505;49.456;8.164;2022-10-22T10:43:12;6.32;;;1.15;;
16775;SDS011;8505;49.456;8.164;2022-10-22T10:45:46;4.65;;;0.85;;
16775;SDS011;8505;49.456;8.164;2022-10-22T10:48:27;4.60;;;1.15;;
16775;SDS011;8505;49.456;8.164;2022-10-22T10:51:07;4.82;;;1.42;;
16775;SDS011;8505;49.456;8.164;2022-10-22T10:54:00;3.38;;;1.10;;
16775;SDS011;8505;49.456;8.164;2022-10-22T10:56:36;3.73;;;1.10;;
16775;SDS011;8505;49.456;8.164;2022-10-22T10:59:12;4.80;;;1.17;;
16775;SDS011;8505;49.456;8.164;2022-10-22T11:01:55;4.90;;;1.00;;
16775;SDS011;8505;49.456;8.164;2022-10-22T11:04:49;3.97;;;0.73;;
16775;SDS011;8505;49.456;8.164;2022-10-22T11:07:39;4.50;;;0.90;;
16775;SDS011;8505;49.456;8.164;2022-10-22T11:10:16;3.38;;;1.00;;
16775;SDS011;8505;49.456;8.164;2022-10-22T11:12:51;3.85;;;1.00;;
16775;SDS011;8505;49.456;8.164;2022-10-22T11:15:23;4.73;;;1.00;;
16775;SDS011;8505;49.456;8.164;2022-10-22T11:17:54;5.07;;;1.30;;
16775;SDS011;8505;49.456;8.164;2022-10-22T11:20:27;5.55;;;1.17;;
16775;SDS011;8505;49.456;8.164;2022-10-22T11:23:03;3.00;;;1.10;;
16775;SDS011;8505;49.456;8.164;2022-10-22T11:25:47;4.47;;;0.90;;
16775;SDS011;8505;49.456;8.164;2022-10-22T11:28:17;3.88;;;0.98;;
16775;SDS011;8505;49.456;8.164;2022-10-22T11:30:51;4.43;;;0.90;;
16775;SDS011;8505;49.456;8.164;2022-10-22T11:33:26;4.35;;;0.93;;
16775;SDS011;8505;49.456;8.164;2022-10-22T11:36:00;5.35;;;0.90;;
16775;SDS011;8505;49.456;8.164;2022-10-22T11:38:31;4.93;;;1.00;;
16775;SDS011;8505;49.456;8.164;2022-10-22T11:41:01;4.30;;;0.93;;
16775;SDS011;8505;49.456;8.164;2022-10-22T11:43:33;4.20;;;1.08;;
16775;SDS011;8505;49.456;8.164;2022-10-22T11:46:25;4.95;;;1.00;;
16775;SDS011;8505;49.456;8.164;2022-10-22T11:49:04;3.65;;;1.00;;
16775;SDS011;8505;49.456;8.164;2022-10-22T11:51:43;4.80;;;0.98;;
16775;SDS011;8505;49.456;8.164;2022-10-22T11:54:30;5.33;;;1.00;;
16775;SDS011;8505;49.456;8.164;2022-10-22T11:57:19;4.05;;;0.90;;
16775;SDS011;8505;49.456;8.164;2022-10-22T11:59:50;5.03;;;1.00;;
16775;SDS011;8505;49.456;8.164;2022-10-22T12:02:24;4.50;;;1.20;;
16775;SDS011;8505;49.456;8.164;2022-10-22T12:05:16;5.72;;;1.55;;
16775;SDS011;8505;49.456;8.164;2022-10-22T12:07:50;6.40;;;1.17;;
16775;SDS011;8505;49.456;8.164;2022-10-22T12:10:21;4.40;;;1.07;;
16775;SDS011;8505;49.456;8.164;2022-10-22T12:12:54;5.90;;;1.20;;
16775;SDS011;8505;49.456;8.164;2022-10-22T12:15:25;6.13;;;1.80;;
16775;SDS011;8505;49.456;8.164;2022-10-22T12:17:58;7.15;;;2.20;;
16775;SDS011;8505;49.456;8.164;2022-10-22T12:20:27;6.30;;;2.05;;
16775;SDS011;8505;49.456;8.164;2022-10-22T12:22:56;5.65;;;1.10;;
16775;SDS011;8505;49.456;8.164;2022-10-22T12:25:29;3.42;;;0.90;;
16775;SDS011;8505;49.456;8.164;2022-10-22T12:28:01;4.05;;;1.00;;
16775;SDS011;8505;49.456;8.164;2022-10-22T12:30:29;3.03;;;0.73;;
16775;SDS011;8505;49.456;8.164;2022-10-22T12:33:00;5.45;;;1.30;;
16775;SDS011;8505;49.456;8.164;2022-10-22T12:35:30;3.72;;;1.00;;
16775;SDS011;8505;49.456;8.164;2022-10-22T12:38:02;7.32;;;2.20;;
16775;SDS011;8505;49.456;8.164;2022-10-22T12:40:35;4.73;;;1.20;;
16775;SDS011;8505;49.456;8.164;2022-10-22T12:43:06;3.55;;;0.95;;
16775;SDS011;8505;49.456;8.164;2022-10-22T12:45:38;5.60;;;0.87;;
16775;SDS011;8505;49.456;8.164;2022-10-22T12:48:07;4.55;;;0.95;;
16775;SDS011;8505;49.456;8.164;2022-10-22T12:50:43;4.03;;;0.95;;
16775;SDS011;8505;49.456;8.164;2022-10-22T12:53:15;6.57;;;1.13;;
16775;SDS011;8505;49.456;8.164;2022-10-22T12:55:48;3.88;;;1.10;;
16775;SDS011;8505;49.456;8.164;2022-10-22T12:58:19;3.58;;;0.90;;
16775;SDS011;8505;49.456;8.164;2022-10-22T13:00:51;3.70;;;1.00;;
16775;SDS011;8505;49.456;8.164;2022-10-22T13:03:25;3.17;;;0.98;;
16775;SDS011;8505;49.456;8.164;2022-10-22T13:05:55;4.53;;;1.00;;
16775;SDS011;8505;49.456;8.164;2022-10-22T13:08:26;5.18;;;1.00;;
16775;SDS011;8505;49.456;8.164;2022-10-22T13:10:55;5.18;;;1.10;;
16775;SDS011;8505;49.456;8.164;2022-10-22T13:13:38;2.72;;;0.80;;
16775;SDS011;8505;49.456;8.164;2022-10-22T13:16:14;5.55;;;1.00;;
16775;SDS011;8505;49.456;8.164;2022-10-22T13:18:44;4.07;;;0.82;;
16775;SDS011;8505;49.456;8.164;2022-10-22T13:21:22;3.45;;;1.00;;
16775;SDS011;8505;49.456;8.164;2022-10-22T13:23:53;6.93;;;1.00;;
16775;SDS011;8505;49.456;8.164;2022-10-22T13:26:30;3.42;;;0.90;;
16775;SDS011;8505;49.456;8.164;2022-10-22T13:28:59;3.70;;;1.17;;
16775;SDS011;8505;49.456;8.164;2022-10-22T13:31:29;5.13;;;1.00;;
16775;SDS011;8505;49.456;8.164;2022-10-22T13:33:59;4.20;;;1.00;;
16775;SDS011;8505;49.456;8.164;2022-10-22T13:36:37;4.57;;;0.90;;
16775;SDS011;8505;49.456;8.164;2022-10-22T13:39:05;4.28;;;0.77;;
16775;SDS011;8505;49.456;8.164;2022-10-22T13:41:37;6.97;;;1.10;;
16775;SDS011;8505;49.456;8.164;2022-10-22T13:44:10;4.87;;;1.00;;
16775;SDS011;8505;49.456;8.164;2022-10-22T13:46:38;4.10;;;0.90;;
16775;SDS011;8505;49.456;8.164;2022-10-22T13:49:09;6.90;;;1.13;;
16775;SDS011;8505;49.456;8.164;2022-10-22T13:51:41;4.70;;;1.02;;
16775;SDS011;8505;49.456;8.164;2022-10-22T13:54:09;5.60;;;1.10;;
16775;SDS011;8505;49.456;8.164;2022-10-22T13:56:43;8.33;;;4.70;;
16775;SDS011;8505;49.456;8.164;2022-10-22T13:59:10;4.28;;;1.00;;
16775;SDS011;8505;49.456;8.164;2022-10-22T14:01:38;4.63;;;0.80;;
16775;SDS011;8505;49.456;8.164;2022-10-22T14:04:07;4.82;;;1.15;;
16775;SDS011;8505;49.456;8.164;2022-10-22T14:06:38;7.20;;;3.25;;
16775;SDS011;8505;49.456;8.164;2022-10-22T14:09:09;6.47;;;1.80;;
16775;SDS011;8505;49.456;8.164;2022-10-22T14:11:40;4.40;;;1.02;;
16775;SDS011;8505;49.456;8.164;2022-10-22T14:14:09;7.20;;;1.83;;
16775;SDS011;8505;49.456;8.164;2022-10-22T14:16:39;5.75;;;1.10;;
16775;SDS011;8505;49.456;8.164;2022-10-22T14:19:08;5.05;;;1.15;;
16775;SDS011;8505;49.456;8.164;2022-10-22T14:21:41;8.90;;;3.28;;
16775;SDS011;8505;49.456;8.164;2022-10-22T14:24:09;94.93;;;47.87;;
16775;SDS011;8505;49.456;8.164;2022-10-22T14:26:38;89.60;;;42.55;;
16775;SDS011;8505;49.456;8.164;2022-10-22T14:29:07;59.80;;;31.95;;
16775;SDS011;8505;49.456;8.164;2022-10-22T14:31:38;12.15;;;3.63;;
16775;SDS011;8505;49.456;8.164;2022-10-22T14:34:09;11.68;;;4.43;;
16775;SDS011;8505;49.456;8.164;2022-10-22T14:36:37;24.63;;;12.00;;
16775;SDS011;8505;49.456;8.164;2022-10-22T14:39:05;11.65;;;6.95;;
16775;SDS011;8505;49.456;8.164;2022-10-22T14:41:33;3.03;;;0.90;;
16775;SDS011;8505;49.456;8.164;2022-10-22T14:44:01;7.55;;;1.05;;
16775;SDS011;8505;49.456;8.164;2022-10-22T14:46:28;4.57;;;1.00;;
16775;SDS011;8505;49.456;8.164;2022-10-22T14:48:57;4.80;;;1.07;;
16775;SDS011;8505;49.456;8.164;2022-10-22T14:51:25;5.03;;;1.75;;
16775;SDS011;8505;49.456;8.164;2022-10-22T14:53:52;5.43;;;1.23;;
16775;SDS011;8505;49.456;8.164;2022-10-22T14:56:20;7.15;;;1.17;;
16775;SDS011;8505;49.456;8.164;2022-10-22T14:58:48;5.53;;;1.10;;
16775;SDS011;8505;49.456;8.164;2022-10-22T15:01:16;5.37;;;1.40;;
16775;SDS011;8505;49.456;8.164;2022-10-22T15:03:43;6.18;;;1.25;;
16775;SDS011;8505;49.456;8.164;2022-10-22T15:06:12;7.32;;;1.25;;
16775;SDS011;8505;49.456;8.164;2022-10-22T15:08:40;6.55;;;1.27;;
16775;SDS011;8505;49.456;8.164;2022-10-22T15:11:09;4.43;;;1.30;;
16775;SDS011;8505;49.456;8.164;2022-10-22T15:13:38;4.30;;;1.30;;
16775;SDS011;8505;49.456;8.164;2022-10-22T15:16:06;4.32;;;1.20;;
16775;SDS011;8505;49.456;8.164;2022-10-22T15:18:35;9.38;;;1.25;;
16775;SDS011;8505;49.456;8.164;2022-10-22T15:21:04;4.70;;;1.00;;
16775;SDS011;8505;49.456;8.164;2022-10-22T15:23:35;5.05;;;1.30;;
16775;SDS011;8505;49.456;8.164;2022-10-22T15:26:06;10.70;;;1.53;;